Hauptseite
METAR-TAF:

METAR-TAF

Flughäfen :

Flughafen Aqaba

Aqaba, Jordanien

Breite: 29-38N, Länge: 035-01E, Höhe: 53 m

Beobachtung

Neuester Wetterbericht von vor 1 Stunde und 9 Minuten, um 23:00 UTC
Wind 10 kt aus Nord
Temperatur 8°C
Luftfeuchtigkeit 57%
Luftdruck 1029 hPa
Sichtweite 10 km oder mehr
keine Wolken unter 1500 m und keine Kumulonimbus oder Gewitterwolken

METAR: OJAQ 252300Z 36010KT CAVOK 08/00 Q1029 NOSIG

Zeit: 02:09 (00:09 UTC)

Prognose

Neuester Wetterbericht von vor 1 Stunde und 14 Minuten, um 22:55 UTC
Gültige Prognose vom 26 um 00 UTC bis 27 um 06 UTC
Wind 8 kt aus Nord
Sichtweite 10 km oder mehr
keine Wolken unter 1500 m und keine Kumulonimbus oder Gewitterwolken
Wahrscheinlichkeit 30%
vom 26 um 10 UTC bis 26 um 15 UTC
Wind 16 kt aus Nord
Sichtweite: 5000 m
Staubtreiben

TAF: OJAQ 252255Z 2600/2706 36008KT CAVOK PROB30 2610/2615 36016KT 5000 BLDU NSC

Wetterbeobachtungen und Prognosen von mehr als 4000 Flughäfen (METAR und TAF Bericht).

Die verfügbaren Stationen werden durch gelbe und rote Markierungen auf der Karte dargestellt.

Führen Sie die Maus auf sie, um den Namen der Station zu sehen.

Darauf klicken, um die Beobachtung von Wetterbeobachtungen und Prognosen zu sehen.

Um die Karte zu ändern : klicken Sie auf den grünen Tasten mit einem schwarzen Kreuz Zum Vergrößern, auf den grünen Button mit einem Gedankenstrich zu verkleinern, oder auf die grünen Pfeile für benachbarte Karten.


METAR-TAF: